createdAt,value
2017-12-11T00:00:17.951Z,15.50
2017-12-11T00:02:46.002Z,15.30
2017-12-11T00:05:14.350Z,16.57
2017-12-11T00:07:42.645Z,18.10
2017-12-11T00:10:12.286Z,24.70
2017-12-11T00:12:40.503Z,20.30
2017-12-11T00:15:09.196Z,19.67
2017-12-11T00:17:37.477Z,18.63
2017-12-11T00:20:05.814Z,20.23
2017-12-11T00:22:47.443Z,17.90
2017-12-11T00:25:15.772Z,21.00
2017-12-11T00:27:45.202Z,19.93
2017-12-11T00:30:13.494Z,18.17
2017-12-11T00:32:44.374Z,20.13
2017-12-11T00:35:13.426Z,18.27
2017-12-11T00:37:41.713Z,17.90
2017-12-11T00:40:10.065Z,20.33
2017-12-11T00:42:39.861Z,16.80
2017-12-11T00:45:08.155Z,17.30
2017-12-11T00:47:36.522Z,22.23
2017-12-11T00:50:04.806Z,19.20
2017-12-11T00:52:34.233Z,18.00
2017-12-11T00:55:03.345Z,16.87
2017-12-11T00:57:32.774Z,31.90
2017-12-11T01:00:02.425Z,16.63
2017-12-11T01:02:31.409Z,22.63
2017-12-11T01:04:59.694Z,13.47
2017-12-11T01:07:27.974Z,14.53
2017-12-11T01:09:57.674Z,15.70
2017-12-11T01:12:26.240Z,17.70
2017-12-11T01:14:55.286Z,16.40
2017-12-11T01:17:23.619Z,15.00
2017-12-11T01:19:53.416Z,16.07
2017-12-11T01:22:21.697Z,17.23
2017-12-11T01:24:50.073Z,15.30
2017-12-11T01:27:19.866Z,13.80
2017-12-11T01:29:48.154Z,17.17
2017-12-11T01:32:16.495Z,16.50
2017-12-11T01:34:44.814Z,17.90
2017-12-11T01:37:13.097Z,15.00
2017-12-11T01:39:41.438Z,16.70
2017-12-11T01:42:15.718Z,14.23
2017-12-11T01:44:45.191Z,15.17
2017-12-11T01:47:13.475Z,16.50
2017-12-11T01:49:42.902Z,16.93
2017-12-11T01:52:12.012Z,17.40
2017-12-11T01:54:41.067Z,17.33
2017-12-11T01:57:10.713Z,17.33
2017-12-11T01:59:39.346Z,18.00
2017-12-11T02:02:07.625Z,18.70
2017-12-11T02:04:37.431Z,20.73
2017-12-11T02:07:05.768Z,19.03
2017-12-11T02:09:34.073Z,20.20
2017-12-11T02:12:03.868Z,21.17
2017-12-11T02:14:32.230Z,19.83
2017-12-11T02:17:00.523Z,21.30
2017-12-11T02:19:30.862Z,18.10
2017-12-11T02:21:59.210Z,21.37
2017-12-11T02:24:27.502Z,19.60
2017-12-11T02:26:56.942Z,23.23
2017-12-11T02:29:25.302Z,22.10
2017-12-11T02:31:53.589Z,20.40
2017-12-11T02:34:23.230Z,20.30
2017-12-11T02:36:52.250Z,19.37
2017-12-11T02:39:20.936Z,16.20
2017-12-11T02:41:49.225Z,19.87
2017-12-11T02:44:17.565Z,15.67
2017-12-11T02:46:45.863Z,21.03
2017-12-11T02:49:15.506Z,19.93
2017-12-11T02:51:43.711Z,24.20
2017-12-11T02:54:11.995Z,20.33
2017-12-11T02:56:40.282Z,25.33
2017-12-11T02:59:08.622Z,28.90
2017-12-11T03:01:36.906Z,26.20
2017-12-11T03:04:05.193Z,23.47
2017-12-11T03:06:34.070Z,28.13
2017-12-11T03:09:03.138Z,27.67
2017-12-11T03:11:32.562Z,33.10
2017-12-11T03:14:01.677Z,29.33
2017-12-11T03:16:31.317Z,28.30
2017-12-11T03:18:59.882Z,31.87
2017-12-11T03:21:28.983Z,33.53
2017-12-11T03:23:57.274Z,29.12
2017-12-11T03:26:25.570Z,23.83
2017-12-11T03:28:55.414Z,28.07
2017-12-11T03:31:23.709Z,25.27
2017-12-11T03:33:52.381Z,29.57
2017-12-11T03:36:21.485Z,27.33
2017-12-11T03:38:49.822Z,27.83
2017-12-11T03:41:18.500Z,29.77
2017-12-11T03:43:46.850Z,27.57
2017-12-11T03:46:15.197Z,25.20
2017-12-11T03:48:44.622Z,29.27
2017-12-11T03:51:12.962Z,25.90
2017-12-11T03:53:42.377Z,25.87
2017-12-11T03:56:11.429Z,26.37
2017-12-11T03:58:39.774Z,27.02
2017-12-11T04:01:08.462Z,24.03
2017-12-11T04:03:38.107Z,29.10
2017-12-11T04:06:07.674Z,23.62
2017-12-11T04:08:37.346Z,26.90
2017-12-11T04:11:05.664Z,26.47
2017-12-11T04:13:34.020Z,24.37
2017-12-11T04:16:03.446Z,25.98
2017-12-11T04:18:31.730Z,28.97
2017-12-11T04:21:00.470Z,27.48
2017-12-11T04:23:28.754Z,25.27
2017-12-11T04:25:58.177Z,26.67
2017-12-11T04:28:26.523Z,25.52
2017-12-11T04:30:54.818Z,26.42
2017-12-11T04:33:24.255Z,23.38
2017-12-11T04:35:52.994Z,26.00
2017-12-11T04:38:21.304Z,29.17
2017-12-11T04:40:49.631Z,27.15
2017-12-11T04:43:18.726Z,27.23
2017-12-11T04:45:48.518Z,24.90
2017-12-11T04:48:17.568Z,30.70
2017-12-11T04:50:47.071Z,29.35
2017-12-11T04:53:16.865Z,24.47
2017-12-11T04:55:45.166Z,28.05
2017-12-11T04:58:13.524Z,28.43
2017-12-11T05:00:43.311Z,27.77
2017-12-11T05:03:11.598Z,29.73
2017-12-11T05:05:39.939Z,29.65
2017-12-11T05:08:08.229Z,28.23
2017-12-11T05:10:36.537Z,27.40
2017-12-11T05:13:04.883Z,22.35
2017-12-11T05:15:34.910Z,28.05
2017-12-11T05:18:03.201Z,28.70
2017-12-11T05:20:32.302Z,31.35
2017-12-11T05:23:00.593Z,22.67
2017-12-11T05:25:28.882Z,19.50
2017-12-11T05:27:58.740Z,22.35
2017-12-11T05:30:27.026Z,19.90
2017-12-11T05:32:55.323Z,22.30
2017-12-11T05:35:23.678Z,22.30
2017-12-11T05:37:53.321Z,23.95
2017-12-11T05:40:22.267Z,23.67
2017-12-11T05:42:51.402Z,20.98
2017-12-11T05:45:19.688Z,18.37
2017-12-11T05:47:47.978Z,19.75
2017-12-11T05:50:16.314Z,20.00
2017-12-11T05:52:44.601Z,23.77
2017-12-11T05:55:12.894Z,19.62
2017-12-11T05:57:41.250Z,21.75
2017-12-11T06:00:09.934Z,19.60
2017-12-11T06:02:38.223Z,19.85
2017-12-11T06:05:06.566Z,22.42
2017-12-11T06:07:36.389Z,24.15
2017-12-11T06:10:06.073Z,21.85
2017-12-11T06:12:34.682Z,20.67
2017-12-11T06:15:03.371Z,20.42
2017-12-11T06:17:31.711Z,22.10
2017-12-11T06:20:00.774Z,19.80
2017-12-11T06:22:29.062Z,24.08
2017-12-11T06:24:57.393Z,22.50
2017-12-11T06:27:25.678Z,19.92
2017-12-11T06:29:53.986Z,23.15
2017-12-11T06:32:22.338Z,22.23
2017-12-11T06:34:51.399Z,23.27
2017-12-11T06:37:20.459Z,21.05
2017-12-11T06:39:51.094Z,21.83
2017-12-11T06:42:19.779Z,21.60
2017-12-11T06:44:48.130Z,22.85
2017-12-11T06:47:16.617Z,22.52
2017-12-11T06:49:46.262Z,24.63
2017-12-11T06:52:14.433Z,22.45
2017-12-11T06:54:42.770Z,26.50
2017-12-11T06:57:11.063Z,20.98
2017-12-11T06:59:39.358Z,20.80
2017-12-11T07:02:07.719Z,24.27
2017-12-11T07:04:36.006Z,26.42
2017-12-11T07:07:05.068Z,27.75
2017-12-11T07:09:33.432Z,25.10
2017-12-11T07:12:02.481Z,21.83
2017-12-11T07:14:31.914Z,24.60
2017-12-11T07:17:00.245Z,27.58
2017-12-11T07:19:28.530Z,25.95
2017-12-11T07:21:56.823Z,28.33
2017-12-11T07:24:25.938Z,25.23
2017-12-11T07:26:54.594Z,26.75
2017-12-11T07:29:23.269Z,27.33
2017-12-11T07:31:52.010Z,26.77
2017-12-11T07:34:20.301Z,23.60
2017-12-11T07:36:48.595Z,25.80
2017-12-11T07:39:16.953Z,26.60
2017-12-11T07:41:46.592Z,28.25
2017-12-11T07:44:15.150Z,29.58
2017-12-11T07:46:45.047Z,28.50
2017-12-11T07:49:13.347Z,28.87
2017-12-11T07:51:41.659Z,23.83
2017-12-11T07:54:09.992Z,27.67
2017-12-11T07:56:38.279Z,31.08
2017-12-11T07:59:06.573Z,29.30
2017-12-11T08:01:36.254Z,29.50
2017-12-11T08:04:04.429Z,31.92
2017-12-11T08:06:32.709Z,30.77
2017-12-11T08:09:01.883Z,30.83
2017-12-11T08:11:31.534Z,32.70
2017-12-11T08:14:01.054Z,32.42
2017-12-11T08:16:30.047Z,32.28
2017-12-11T08:18:58.337Z,29.85
2017-12-11T08:21:26.626Z,31.58
2017-12-11T08:23:54.966Z,32.53
2017-12-11T08:26:23.262Z,33.20
2017-12-11T08:28:51.553Z,29.77
2017-12-11T08:31:19.922Z,31.55
2017-12-11T08:33:49.341Z,27.03
2017-12-11T08:36:17.626Z,31.17
2017-12-11T08:38:45.958Z,33.35
2017-12-11T08:41:15.759Z,26.20
2017-12-11T08:43:44.050Z,30.60
2017-12-11T08:46:12.398Z,30.67
2017-12-11T08:48:40.716Z,30.48
2017-12-11T08:51:09.778Z,30.80
2017-12-11T08:53:39.470Z,27.37
2017-12-11T08:56:08.028Z,30.23
2017-12-11T08:58:36.301Z,28.13
2017-12-11T09:01:04.629Z,30.97
2017-12-11T09:03:32.978Z,29.42
2017-12-11T09:06:01.210Z,36.83
2017-12-11T09:08:29.901Z,32.53
2017-12-11T09:10:58.589Z,34.25
2017-12-11T09:13:26.874Z,33.47
2017-12-11T09:15:55.221Z,31.10
2017-12-11T09:18:24.866Z,32.95
2017-12-11T09:20:54.170Z,33.20
2017-12-11T09:23:24.034Z,35.53
2017-12-11T09:25:53.088Z,33.80
2017-12-11T09:28:21.395Z,34.90
2017-12-11T09:30:49.731Z,32.60
2017-12-11T09:33:18.783Z,35.25
2017-12-11T09:35:47.825Z,38.17
2017-12-11T09:38:16.164Z,39.58
2017-12-11T09:40:44.441Z,36.50
2017-12-11T09:43:12.729Z,33.30
2017-12-11T09:45:41.076Z,34.67
2017-12-11T09:48:09.358Z,33.22
2017-12-11T09:50:38.455Z,34.25
2017-12-11T09:53:07.693Z,38.92
2017-12-11T09:55:36.739Z,34.45
2017-12-11T09:58:05.805Z,34.60
2017-12-11T10:00:35.273Z,39.13
2017-12-11T10:03:03.594Z,37.03
2017-12-11T10:05:31.889Z,36.45
2017-12-11T10:08:00.214Z,40.97
2017-12-11T10:10:29.267Z,35.53
2017-12-11T10:12:58.322Z,37.55
2017-12-11T10:15:26.645Z,39.20
2017-12-11T10:17:55.703Z,39.70
2017-12-11T10:20:25.349Z,38.22
2017-12-11T10:22:54.022Z,37.15
2017-12-11T10:25:22.306Z,37.30
2017-12-11T10:27:50.599Z,40.03
2017-12-11T10:30:18.942Z,39.75
2017-12-11T10:32:47.230Z,37.75
2017-12-11T10:35:15.517Z,38.88
2017-12-11T10:37:45.510Z,40.10
2017-12-11T10:40:13.802Z,42.25
2017-12-11T10:42:43.222Z,50.28
2017-12-11T10:45:11.560Z,48.22
2017-12-11T10:47:39.844Z,49.42
2017-12-11T10:50:08.132Z,41.60
2017-12-11T10:52:37.233Z,38.15
2017-12-11T10:55:05.518Z,39.85
2017-12-11T10:57:33.806Z,50.17
2017-12-11T11:00:03.658Z,49.10
2017-12-11T11:02:31.949Z,44.40
2017-12-11T11:05:01.577Z,47.08
2017-12-11T11:07:29.788Z,48.08
2017-12-11T11:09:58.075Z,48.92
2017-12-11T11:12:27.126Z,52.92
2017-12-11T11:14:56.232Z,51.25
2017-12-11T11:17:25.277Z,50.80
2017-12-11T11:19:55.073Z,52.03
2017-12-11T11:22:23.805Z,49.72
2017-12-11T11:24:53.235Z,41.08
2017-12-11T11:27:21.522Z,40.83
2017-12-11T11:29:51.214Z,44.70
2017-12-11T11:32:19.776Z,41.03
2017-12-11T11:34:49.190Z,39.65
2017-12-11T11:37:18.307Z,40.35
2017-12-11T11:39:47.360Z,40.70
2017-12-11T11:42:15.643Z,37.47
2017-12-11T11:44:45.482Z,43.03
2017-12-11T11:47:14.534Z,32.35
2017-12-11T11:49:43.585Z,35.17
2017-12-11T11:52:11.921Z,33.78
2017-12-11T11:54:41.561Z,39.10
2017-12-11T11:57:10.115Z,34.25
2017-12-11T11:59:38.477Z,34.65
2017-12-11T12:02:06.757Z,34.45
2017-12-11T12:04:35.043Z,29.27
2017-12-11T12:07:03.382Z,31.95
2017-12-11T12:09:32.425Z,33.20
2017-12-11T12:12:00.713Z,44.10
2017-12-11T12:14:29.818Z,31.45
2017-12-11T12:16:58.113Z,29.92
2017-12-11T12:19:27.164Z,33.08
2017-12-11T12:21:55.942Z,35.00
2017-12-11T12:24:25.368Z,33.55
2017-12-11T12:26:53.662Z,31.05
2017-12-11T12:29:23.510Z,33.83
2017-12-11T12:31:53.155Z,34.88
2017-12-11T12:34:21.709Z,31.42
2017-12-11T12:36:50.830Z,34.95
2017-12-11T12:39:20.275Z,36.70
2017-12-11T12:41:48.957Z,29.50
2017-12-11T12:44:17.295Z,30.08
2017-12-11T12:46:46.723Z,32.53
2017-12-11T12:49:15.048Z,36.28
2017-12-11T12:51:43.424Z,28.70
2017-12-11T12:54:11.707Z,28.95
2017-12-11T12:56:41.357Z,34.67
2017-12-11T12:59:09.978Z,28.55
2017-12-11T13:01:39.038Z,34.08
2017-12-11T13:04:08.682Z,29.25
2017-12-11T13:06:37.294Z,32.78
2017-12-11T13:09:06.931Z,32.97
2017-12-11T13:11:35.485Z,36.28
2017-12-11T13:14:03.842Z,32.90
2017-12-11T13:16:33.635Z,27.92
2017-12-11T13:19:02.319Z,33.92
2017-12-11T13:21:32.174Z,28.02
2017-12-11T13:24:00.463Z,29.65
2017-12-11T13:26:28.741Z,32.40
2017-12-11T13:28:58.434Z,28.38
2017-12-11T13:31:27.000Z,25.80
2017-12-11T13:33:56.436Z,25.48
2017-12-11T13:36:25.543Z,23.80
2017-12-11T13:38:54.594Z,23.23
2017-12-11T13:41:22.877Z,23.77
2017-12-11T13:43:51.225Z,24.17
2017-12-11T13:46:19.514Z,23.65
2017-12-11T13:48:47.804Z,26.83
2017-12-11T13:51:17.493Z,25.00
2017-12-11T13:53:45.658Z,28.98
2017-12-11T13:56:13.938Z,23.97
2017-12-11T13:58:42.279Z,29.97
2017-12-11T14:01:10.561Z,24.43
2017-12-11T14:03:38.842Z,22.87
2017-12-11T14:06:09.177Z,27.37
2017-12-11T14:08:38.601Z,22.30
2017-12-11T14:11:06.887Z,26.73
2017-12-11T14:13:36.601Z,27.92
2017-12-11T14:16:05.157Z,23.83
2017-12-11T14:18:34.792Z,23.70
2017-12-11T14:21:03.781Z,26.75
2017-12-11T14:23:32.467Z,23.20
2017-12-11T14:26:00.751Z,22.13
2017-12-11T14:28:29.081Z,21.70
2017-12-11T14:30:57.366Z,22.03
2017-12-11T14:33:27.009Z,21.00
2017-12-11T14:35:55.995Z,24.70
2017-12-11T14:38:25.422Z,21.37
2017-12-11T14:40:55.065Z,23.02
2017-12-11T14:43:24.435Z,26.50
2017-12-11T14:45:52.718Z,26.30
2017-12-11T14:48:22.146Z,25.23
2017-12-11T14:50:51.858Z,26.30
2017-12-11T14:53:21.172Z,26.75
2017-12-11T14:55:50.823Z,31.63
2017-12-11T14:58:20.178Z,28.65
2017-12-11T15:00:49.234Z,26.80
2017-12-11T15:03:17.514Z,24.60
2017-12-11T15:05:46.680Z,25.70
2017-12-11T15:08:14.922Z,24.67
2017-12-11T15:10:43.210Z,26.17
2017-12-11T15:13:11.539Z,25.73
2017-12-11T15:15:39.824Z,23.40
2017-12-11T15:18:09.615Z,24.30
2017-12-11T15:20:37.970Z,26.37
2017-12-11T15:23:07.382Z,25.73
2017-12-11T15:25:35.667Z,29.10
2017-12-11T15:28:11.706Z,26.60
2017-12-11T15:30:40.373Z,25.10
2017-12-11T15:33:08.667Z,29.17
2017-12-11T15:35:37.027Z,26.45
2017-12-11T15:38:06.070Z,33.50
2017-12-11T15:40:35.722Z,27.70
2017-12-11T15:43:04.367Z,32.07
2017-12-11T15:45:33.417Z,22.70
2017-12-11T15:48:02.461Z,26.60
2017-12-11T15:50:32.144Z,24.90
2017-12-11T15:53:00.705Z,26.63
2017-12-11T15:55:28.991Z,22.47
2017-12-11T15:57:57.334Z,26.90
2017-12-11T16:00:25.614Z,74.37
2017-12-11T16:02:53.898Z,27.23
2017-12-11T16:05:22.230Z,33.00
2017-12-11T16:07:50.519Z,32.45
2017-12-11T16:10:19.937Z,29.83
2017-12-11T16:12:49.615Z,24.47
2017-12-11T16:15:18.162Z,27.63
2017-12-11T16:17:46.443Z,29.93
2017-12-11T16:20:14.785Z,35.87
2017-12-11T16:22:43.851Z,32.03
2017-12-11T16:25:12.125Z,41.93
2017-12-11T16:27:40.462Z,34.00
2017-12-11T16:30:10.091Z,45.60
2017-12-11T16:32:39.158Z,25.60
2017-12-11T16:35:08.629Z,30.23
2017-12-11T16:37:36.922Z,23.03
2017-12-11T16:40:05.211Z,22.30
2017-12-11T16:42:33.939Z,25.83
2017-12-11T16:45:02.991Z,24.77
2017-12-11T16:47:31.275Z,32.63
2017-12-11T16:49:59.614Z,29.70
2017-12-11T16:52:27.900Z,28.30
2017-12-11T16:54:56.181Z,25.37
2017-12-11T16:57:24.529Z,21.07
2017-12-11T16:59:52.815Z,19.70
2017-12-11T17:02:21.868Z,31.07
2017-12-11T17:04:51.563Z,28.17
2017-12-11T17:07:21.231Z,21.53
2017-12-11T17:09:50.273Z,25.20
2017-12-11T17:12:20.117Z,56.70
2017-12-11T17:14:48.410Z,38.13
2017-12-11T17:17:18.058Z,20.53
2017-12-11T17:19:46.689Z,41.97
2017-12-11T17:22:14.979Z,32.17
2017-12-11T17:24:44.780Z,52.00
2017-12-11T17:27:13.142Z,39.70
2017-12-11T17:29:41.439Z,44.77
2017-12-11T17:32:09.719Z,40.80
2017-12-11T17:34:39.606Z,43.73
2017-12-11T17:37:07.894Z,43.93
2017-12-11T17:39:36.589Z,45.57
2017-12-11T17:42:06.430Z,37.80
2017-12-11T17:44:34.730Z,39.17
2017-12-11T17:47:03.774Z,37.33
2017-12-11T17:49:32.110Z,33.37
2017-12-11T17:52:00.398Z,31.40
2017-12-11T17:54:28.687Z,23.33
2017-12-11T17:56:57.038Z,21.93
2017-12-11T17:59:26.470Z,28.27
2017-12-11T18:01:54.748Z,27.00
2017-12-11T18:04:23.078Z,33.43
2017-12-11T18:06:51.362Z,36.00
2017-12-11T18:09:19.650Z,33.47
2017-12-11T18:11:47.994Z,25.57
2017-12-11T18:14:17.633Z,21.93
2017-12-11T18:16:45.808Z,15.73
2017-12-11T18:19:14.274Z,13.23
2017-12-11T18:21:43.916Z,11.00
2017-12-11T18:24:13.637Z,18.33
2017-12-11T18:26:43.350Z,13.83
2017-12-11T18:29:11.558Z,17.37
2017-12-11T18:31:39.874Z,15.47
2017-12-11T18:34:08.252Z,9.50
2017-12-11T18:36:36.560Z,12.37
2017-12-11T18:39:06.197Z,15.23
2017-12-11T18:41:34.411Z,9.33
2017-12-11T18:44:04.086Z,8.57
2017-12-11T18:46:33.037Z,13.50
2017-12-11T18:49:01.442Z,22.90
2017-12-11T18:51:29.749Z,6.47
2017-12-11T18:53:59.169Z,11.30
2017-12-11T18:56:27.515Z,15.57
2017-12-11T18:58:57.394Z,8.63
2017-12-11T19:01:25.707Z,5.40
2017-12-11T19:03:54.079Z,9.03
2017-12-11T19:06:23.705Z,9.20
2017-12-11T19:08:52.253Z,5.50
2017-12-11T19:11:20.578Z,4.20
2017-12-11T19:13:49.999Z,3.57
2017-12-11T19:16:19.775Z,4.23
2017-12-11T19:18:49.454Z,3.40
2017-12-11T19:21:17.989Z,9.30
2017-12-11T19:23:46.282Z,2.33
2017-12-11T19:26:29.155Z,3.90
2017-12-11T19:28:57.425Z,4.10
2017-12-11T19:31:25.705Z,4.53
2017-12-11T19:33:54.830Z,4.30
2017-12-11T19:36:23.119Z,3.97
2017-12-11T19:38:52.234Z,3.07
2017-12-11T19:41:21.356Z,3.87
2017-12-11T19:43:50.406Z,2.30
2017-12-11T19:46:20.026Z,3.63
2017-12-11T19:48:48.264Z,2.53
2017-12-11T19:51:16.539Z,2.07
2017-12-11T19:53:45.582Z,2.60
2017-12-11T19:56:14.704Z,3.70
2017-12-11T19:58:43.743Z,7.63
2017-12-11T20:01:12.778Z,1.30
2017-12-11T20:03:42.450Z,3.20
2017-12-11T20:06:10.603Z,6.70
2017-12-11T20:08:38.890Z,1.87
2017-12-11T20:11:08.358Z,1.63
2017-12-11T20:13:38.006Z,2.30
2017-12-11T20:16:07.353Z,1.47
2017-12-11T20:18:35.654Z,1.90
2017-12-11T20:21:03.926Z,3.70
2017-12-11T20:23:32.205Z,1.50
2017-12-11T20:26:01.661Z,1.83
2017-12-11T20:28:29.939Z,2.53
2017-12-11T20:30:58.211Z,4.33
2017-12-11T20:33:27.305Z,9.13
2017-12-11T20:35:55.583Z,21.70
2017-12-11T20:38:23.863Z,24.50
2017-12-11T20:40:52.963Z,24.10
2017-12-11T20:43:21.246Z,25.83
2017-12-11T20:45:49.922Z,22.60
2017-12-11T20:48:18.258Z,26.43
2017-12-11T20:50:46.555Z,29.37
2017-12-11T20:53:14.831Z,29.97
2017-12-11T20:55:43.172Z,35.67
2017-12-11T20:58:11.459Z,39.80
2017-12-11T21:00:39.747Z,40.40
2017-12-11T21:03:08.145Z,37.53
2017-12-11T21:05:37.570Z,43.40
2017-12-11T21:08:05.862Z,37.90
2017-12-11T21:10:34.214Z,43.40
2017-12-11T21:13:02.487Z,42.70
2017-12-11T21:15:32.129Z,44.13
2017-12-11T21:18:01.698Z,47.20
2017-12-11T21:20:29.863Z,46.27
2017-12-11T21:22:58.149Z,46.33
2017-12-11T21:25:27.631Z,41.50
2017-12-11T21:27:55.905Z,53.20
2017-12-11T21:30:24.191Z,52.07
2017-12-11T21:32:53.495Z,49.60
2017-12-11T21:35:21.783Z,54.17
2017-12-11T21:37:50.476Z,63.53
2017-12-11T21:40:18.870Z,52.97
2017-12-11T21:42:47.561Z,54.60
2017-12-11T21:45:15.833Z,50.70
2017-12-11T21:47:45.314Z,41.80
2017-12-11T21:50:13.598Z,50.57
2017-12-11T21:52:41.885Z,45.40
2017-12-11T21:55:10.231Z,44.10
2017-12-11T21:57:38.510Z,45.40
2017-12-11T22:00:07.559Z,46.13
2017-12-11T22:02:37.419Z,43.30
2017-12-11T22:05:05.707Z,45.60
2017-12-11T22:07:35.507Z,47.67
2017-12-11T22:10:03.842Z,44.63
2017-12-11T22:12:33.643Z,44.43
2017-12-11T22:15:01.971Z,46.63
2017-12-11T22:17:30.310Z,51.17
2017-12-11T22:19:59.354Z,46.87
2017-12-11T22:22:27.635Z,51.90
2017-12-11T22:24:56.750Z,55.65
2017-12-11T22:27:25.046Z,52.00
2017-12-11T22:29:54.098Z,51.80
2017-12-11T22:32:22.426Z,53.57
2017-12-11T22:34:50.720Z,51.40
2017-12-11T22:37:18.998Z,45.37
2017-12-11T22:39:47.358Z,49.23
2017-12-11T22:42:15.661Z,52.80
2017-12-11T22:44:45.453Z,48.55
2017-12-11T22:47:13.806Z,43.03
2017-12-11T22:49:42.102Z,48.47
2017-12-11T22:52:10.402Z,51.42
2017-12-11T22:54:38.742Z,50.47
2017-12-11T22:57:07.799Z,50.67
2017-12-11T22:59:36.095Z,45.20
2017-12-11T23:02:04.443Z,45.75
2017-12-11T23:04:32.731Z,39.97
2017-12-11T23:07:01.033Z,39.53
2017-12-11T23:09:29.367Z,48.97
2017-12-11T23:11:57.655Z,45.08
2017-12-11T23:14:25.950Z,45.67
2017-12-11T23:16:54.345Z,41.28
2017-12-11T23:19:23.402Z,38.47
2017-12-11T23:21:52.833Z,41.10
2017-12-11T23:24:21.182Z,33.60
2017-12-11T23:26:50.244Z,35.22
2017-12-11T23:29:18.529Z,38.97
2017-12-11T23:31:47.258Z,40.80
2017-12-11T23:34:16.309Z,38.03
2017-12-11T23:36:44.598Z,43.60
2017-12-11T23:39:12.938Z,40.00
2017-12-11T23:41:41.626Z,38.13
2017-12-11T23:44:09.919Z,40.30
2017-12-11T23:46:38.283Z,44.55
2017-12-11T23:49:06.571Z,42.13
2017-12-11T23:51:34.859Z,42.40
2017-12-11T23:54:14.950Z,37.35
2017-12-11T23:56:43.250Z,40.50
2017-12-11T23:59:11.530Z,44.35
